Time;durP1;ratioP1;P1;durP2;ratioP2;P2;SDS_P1;SDS_P2;PMS_P1;PMS_P2;Temp;Humidity;BMP_temperature;BMP_pressure;BME280_temperature;BME280_humidity;BME280_pressure;Samples;Min_cycle;Max_cycle;Signal;HPM_P1;HPM_P2
2023/06/22 00:01:18;;;;;;;10.40;7.10;;;21.30;99.90;;;;;;5033628;28;20604;-80
2023/06/22 00:03:44;;;;;;;9.23;6.20;;;21.20;99.90;;;;;;5033257;28;20207;-79
2023/06/22 00:06:10;;;;;;;11.90;6.80;;;21.20;99.90;;;;;;5035950;28;20172;-78
2023/06/22 00:08:35;;;;;;;7.53;6.00;;;21.20;99.90;;;;;;5038592;28;20203;-78
2023/06/22 00:11:01;;;;;;;10.57;7.53;;;21.10;99.90;;;;;;5038140;28;20176;-78
2023/06/22 00:13:27;;;;;;;12.17;7.27;;;21.10;99.90;;;;;;5036308;28;20180;-77
2023/06/22 00:15:53;;;;;;;13.80;6.83;;;21.10;99.90;;;;;;5036328;28;20240;-77
2023/06/22 00:18:18;;;;;;;8.90;6.47;;;21.10;99.90;;;;;;5036251;28;20164;-77
2023/06/22 00:20:45;;;;;;;9.07;6.40;;;21.10;99.90;;;;;;5036275;28;20183;-77
2023/06/22 00:23:11;;;;;;;13.77;6.60;;;21.00;99.90;;;;;;5036155;28;20173;-76
2023/06/22 00:25:39;;;;;;;8.60;7.13;;;21.10;99.90;;;;;;5018190;28;20549;-80
2023/06/22 00:28:07;;;;;;;9.83;6.70;;;21.00;99.90;;;;;;5036253;28;20191;-76
2023/06/22 00:30:34;;;;;;;7.60;6.47;;;20.90;99.90;;;;;;5018327;28;20177;-81
2023/06/22 00:33:00;;;;;;;11.37;6.77;;;20.90;99.90;;;;;;5036004;28;20584;-76
2023/06/22 00:35:28;;;;;;;10.20;6.90;;;20.90;99.90;;;;;;5018513;28;20213;-77
2023/06/22 00:38:00;;;;;;;12.10;7.73;;;20.90;99.90;;;;;;5038281;28;20171;-77
2023/06/22 00:40:30;;;;;;;12.03;6.87;;;20.90;99.90;;;;;;5036559;28;20153;-77
2023/06/22 00:42:55;;;;;;;11.27;6.50;;;20.80;99.90;;;;;;5036082;28;20169;-81
2023/06/22 00:45:25;;;;;;;8.47;6.80;;;20.80;99.90;;;;;;5018324;28;20279;-76
2023/06/22 00:47:52;;;;;;;10.03;6.73;;;20.90;99.90;;;;;;5017928;28;20183;-81
2023/06/22 00:50:24;;;;;;;10.13;7.10;;;20.90;99.90;;;;;;5035714;28;20172;-76
2023/06/22 00:52:59;;;;;;;10.13;7.13;;;20.80;99.90;;;;;;5014878;28;20177;-77
2023/06/22 00:55:28;;;;;;;11.23;7.13;;;20.70;99.90;;;;;;5020218;28;20226;-76
2023/06/22 00:57:57;;;;;;;8.63;6.97;;;20.80;99.90;;;;;;5036019;28;20587;-78
2023/06/22 01:00:24;;;;;;;7.77;6.70;;;20.70;99.90;;;;;;5036377;28;20169;-80
2023/06/22 01:02:51;;;;;;;6.80;5.90;;;20.70;99.90;;;;;;5035792;28;20217;-82
2023/06/22 01:05:21;;;;;;;13.93;8.03;;;20.60;99.90;;;;;;5036776;28;20279;-79
2023/06/22 01:07:56;;;;;;;10.27;7.30;;;20.60;99.90;;;;;;5045748;28;20191;-78
2023/06/22 01:10:44;;;;;;;10.23;7.33;;;20.60;99.90;;;;;;5046564;28;20267;-80
2023/06/22 01:13:31;;;;;;;8.00;6.70;;;20.50;99.90;;;;;;5037412;28;20589;-82
2023/06/22 01:16:03;;;;;;;10.50;6.87;;;20.40;99.90;;;;;;5036126;28;20197;-79
2023/06/22 01:18:31;;;;;;;13.40;7.40;;;20.50;99.90;;;;;;5041094;28;20161;-81
2023/06/22 01:20:57;;;;;;;7.50;6.27;;;20.50;99.90;;;;;;5036016;28;20520;-82
2023/06/22 01:23:26;;;;;;;9.70;7.03;;;20.60;99.90;;;;;;5037996;28;20223;-81
2023/06/22 01:26:14;;;;;;;10.23;7.50;;;20.60;99.90;;;;;;5037556;28;20165;-84
2023/06/22 01:28:51;;;;;;;9.93;6.13;;;20.50;99.90;;;;;;5044366;28;20188;-83
2023/06/22 01:31:20;;;;;;;9.40;7.60;;;20.60;99.90;;;;;;5058504;28;20187;-80
2023/06/22 01:33:51;;;;;;;15.73;7.03;;;20.60;99.90;;;;;;5058821;28;20220;-84
2023/06/22 01:36:17;;;;;;;7.90;6.97;;;20.60;99.90;;;;;;5058941;28;20212;-80
2023/06/22 01:38:45;;;;;;;8.70;7.10;;;20.60;99.90;;;;;;5059458;28;20245;-84
2023/06/22 01:41:12;;;;;;;10.13;7.17;;;20.60;99.90;;;;;;5057492;28;20183;-78
2023/06/22 01:43:38;;;;;;;9.57;7.50;;;20.60;99.90;;;;;;5052068;28;20179;-81
2023/06/22 01:46:04;;;;;;;11.27;7.23;;;20.60;99.90;;;;;;5051776;28;20172;-81
2023/06/22 01:48:31;;;;;;;9.83;7.20;;;20.60;99.90;;;;;;5051549;28;20222;-82
2023/06/22 01:50:57;;;;;;;8.10;7.30;;;20.60;99.90;;;;;;5041069;28;20184;-81
2023/06/22 01:53:24;;;;;;;8.67;7.17;;;20.60;99.90;;;;;;5036352;28;20228;-79
2023/06/22 01:55:50;;;;;;;12.03;7.47;;;20.60;99.90;;;;;;5035529;28;20207;-79
2023/06/22 01:58:16;;;;;;;10.80;6.93;;;20.50;99.90;;;;;;5017302;28;20198;-79
2023/06/22 02:01:06;;;;;;;11.03;6.90;;;20.60;99.90;;;;;;5035207;28;20203;-79
2023/06/22 02:03:37;;;;;;;11.10;6.93;;;20.60;99.90;;;;;;5016569;28;20232;-82
2023/06/22 02:06:10;;;;;;;10.90;7.50;;;20.60;99.90;;;;;;5034133;28;20192;-81
2023/06/22 02:08:45;;;;;;;7.67;6.77;;;20.60;99.90;;;;;;5034352;28;20175;-80
2023/06/22 02:11:13;;;;;;;8.70;6.63;;;20.60;99.90;;;;;;5034085;28;20166;-78
2023/06/22 02:13:42;;;;;;;9.63;7.07;;;20.50;99.90;;;;;;5034091;28;20649;-80
2023/06/22 02:16:12;;;;;;;11.20;7.43;;;20.40;99.90;;;;;;5033869;28;20203;-81
2023/06/22 02:18:40;;;;;;;11.07;8.37;;;20.40;99.90;;;;;;5033758;28;20232;-80
2023/06/22 02:21:06;;;;;;;10.43;6.80;;;20.40;99.90;;;;;;5033681;28;20180;-81
2023/06/22 02:23:34;;;;;;;12.47;7.80;;;20.30;99.90;;;;;;5034251;28;20168;-79
2023/06/22 02:26:02;;;;;;;8.70;7.07;;;20.30;99.90;;;;;;5033731;28;20255;-78
2023/06/22 02:28:27;;;;;;;9.70;6.67;;;20.40;99.90;;;;;;5033190;28;20176;-80
2023/06/22 02:30:53;;;;;;;9.33;6.90;;;20.40;99.90;;;;;;5016675;28;20184;-81
2023/06/22 02:33:19;;;;;;;9.47;8.00;;;20.40;99.90;;;;;;5035105;28;20633;-80
2023/06/22 02:35:48;;;;;;;9.67;7.67;;;20.40;99.90;;;;;;5033614;28;20196;-79
2023/06/22 02:38:14;;;;;;;10.47;7.33;;;20.30;99.90;;;;;;5033604;28;20187;-79
2023/06/22 02:40:40;;;;;;;9.00;7.47;;;20.30;99.90;;;;;;5033303;28;20583;-81
2023/06/22 02:43:06;;;;;;;11.03;7.80;;;20.30;99.90;;;;;;5033368;28;20247;-80
2023/06/22 02:45:32;;;;;;;9.47;7.07;;;20.30;99.90;;;;;;5037227;28;20322;-81
2023/06/22 02:47:58;;;;;;;9.33;8.30;;;20.30;99.90;;;;;;5052014;28;20200;-78
2023/06/22 02:50:24;;;;;;;11.10;7.57;;;20.30;99.90;;;;;;5034713;28;20208;-79
2023/06/22 02:52:49;;;;;;;10.93;8.30;;;20.30;99.90;;;;;;5033118;28;20660;-80
2023/06/22 02:55:15;;;;;;;9.53;7.13;;;20.20;99.90;;;;;;5033429;28;20207;-82
2023/06/22 02:57:43;;;;;;;9.30;8.30;;;20.20;99.90;;;;;;5044647;28;20211;-77
2023/06/22 03:00:17;;;;;;;9.30;8.00;;;20.20;99.90;;;;;;5044965;28;20192;-79
2023/06/22 03:02:47;;;;;;;10.80;7.93;;;20.20;99.90;;;;;;5044502;28;20172;-79
2023/06/22 03:05:14;;;;;;;11.57;7.83;;;20.30;99.90;;;;;;5044583;28;20172;-80
2023/06/22 03:07:46;;;;;;;11.67;9.37;;;20.20;99.90;;;;;;5053509;28;20563;-77
2023/06/22 03:10:14;;;;;;;12.00;8.37;;;20.20;99.90;;;;;;5070095;28;20167;-80
2023/06/22 03:12:41;;;;;;;10.63;8.70;;;20.20;99.90;;;;;;5063817;28;20200;-78
2023/06/22 03:15:09;;;;;;;9.80;7.70;;;20.20;99.90;;;;;;5060508;28;20191;-79
2023/06/22 03:17:36;;;;;;;10.97;8.17;;;20.30;99.90;;;;;;5054959;28;20188;-78
2023/06/22 03:20:08;;;;;;;12.93;9.03;;;20.30;99.90;;;;;;5053408;28;20639;-80
2023/06/22 03:22:43;;;;;;;18.23;9.20;;;20.30;99.90;;;;;;5036897;28;20171;-80
2023/06/22 03:25:10;;;;;;;10.53;8.40;;;20.30;99.90;;;;;;5054759;28;20168;-81
2023/06/22 03:27:43;;;;;;;12.07;9.40;;;20.30;99.90;;;;;;5058139;28;20176;-81
2023/06/22 03:30:11;;;;;;;12.63;8.57;;;20.30;99.90;;;;;;5058472;28;20539;-78
2023/06/22 03:32:37;;;;;;;9.90;8.40;;;20.30;99.90;;;;;;5053869;28;20164;-78
2023/06/22 03:35:03;;;;;;;10.97;8.70;;;20.20;99.90;;;;;;5053577;28;20212;-81
2023/06/22 03:37:29;;;;;;;11.37;8.43;;;20.30;99.90;;;;;;5053848;28;20226;-80
2023/06/22 03:39:55;;;;;;;11.10;8.93;;;20.30;99.90;;;;;;5053600;28;20176;-81
2023/06/22 03:42:21;;;;;;;13.17;9.63;;;20.30;99.90;;;;;;5056977;28;20693;-77
2023/06/22 03:44:47;;;;;;;13.27;8.57;;;20.30;99.90;;;;;;5057176;28;20187;-80
2023/06/22 03:47:12;;;;;;;11.87;8.90;;;20.20;99.90;;;;;;5056970;28;20219;-79
2023/06/22 03:49:38;;;;;;;12.57;9.63;;;20.20;99.90;;;;;;5056415;28;20263;-78
2023/06/22 03:52:05;;;;;;;13.93;8.90;;;20.20;99.90;;;;;;5057630;28;20182;-81
2023/06/22 03:54:31;;;;;;;13.50;8.90;;;20.20;99.90;;;;;;5034423;28;20239;-77
2023/06/22 03:56:58;;;;;;;15.27;8.87;;;20.30;99.90;;;;;;5016967;28;20228;-79
2023/06/22 03:59:25;;;;;;;10.80;8.73;;;20.30;99.90;;;;;;5016468;28;20219;-81
2023/06/22 04:01:50;;;;;;;13.60;9.67;;;20.30;99.90;;;;;;5016787;28;20295;-79
2023/06/22 04:04:18;;;;;;;10.73;8.70;;;20.30;99.90;;;;;;5017196;28;20196;-81
2023/06/22 04:06:43;;;;;;;14.67;9.13;;;20.30;99.90;;;;;;5017052;28;20188;-81
2023/06/22 04:09:09;;;;;;;13.57;9.13;;;20.30;99.90;;;;;;5017298;28;20169;-82
2023/06/22 04:11:35;;;;;;;11.43;9.67;;;20.40;99.90;;;;;;5016433;28;20173;-80
2023/06/22 04:14:00;;;;;;;13.60;9.40;;;20.40;99.90;;;;;;5016857;28;20646;-82
2023/06/22 04:16:26;;;;;;;14.87;9.60;;;20.40;99.90;;;;;;5016436;28;20205;-80
2023/06/22 04:18:52;;;;;;;13.77;9.57;;;20.50;99.90;;;;;;5016421;28;20260;-81
2023/06/22 04:21:19;;;;;;;10.30;9.20;;;20.50;99.90;;;;;;5016738;28;20634;-81
2023/06/22 04:23:46;;;;;;;11.30;9.00;;;20.50;99.90;;;;;;5017249;28;20166;-83
2023/06/22 04:26:12;;;;;;;10.03;8.93;;;20.50;99.90;;;;;;5033608;28;20191;-78
2023/06/22 04:28:38;;;;;;;12.00;8.97;;;20.60;99.90;;;;;;5019651;28;20178;-77
2023/06/22 04:31:04;;;;;;;11.17;9.47;;;20.60;99.90;;;;;;5045426;28;20231;-81
2023/06/22 04:33:31;;;;;;;14.23;8.67;;;20.60;99.90;;;;;;5054263;28;20215;-80
2023/06/22 04:35:57;;;;;;;11.63;9.00;;;20.70;99.90;;;;;;5043976;28;20208;-82
2023/06/22 04:38:24;;;;;;;11.57;9.03;;;20.70;99.90;;;;;;5057293;28;20161;-82
2023/06/22 04:40:50;;;;;;;15.70;9.63;;;20.70;99.90;;;;;;5037316;28;20177;-80
2023/06/22 04:43:16;;;;;;;13.90;9.27;;;20.70;99.90;;;;;;5017015;28;20227;-80
2023/06/22 04:45:42;;;;;;;12.33;8.90;;;20.70;99.90;;;;;;5015007;28;20645;-82
2023/06/22 04:48:09;;;;;;;11.03;9.07;;;20.70;99.90;;;;;;5016492;28;20176;-83
2023/06/22 04:50:38;;;;;;;10.30;9.13;;;20.70;99.90;;;;;;5015647;28;20180;-82
2023/06/22 04:53:05;;;;;;;13.73;9.70;;;20.70;99.90;;;;;;5014722;28;20585;-80
2023/06/22 04:55:32;;;;;;;13.80;9.63;;;20.80;99.90;;;;;;5018307;28;20201;-85
2023/06/22 04:58:04;;;;;;;10.63;8.37;;;20.90;99.90;;;;;;5022009;28;20185;-84
2023/06/22 05:00:30;;;;;;;14.47;9.33;;;21.00;99.90;;;;;;5018928;28;20177;-83
2023/06/22 05:03:00;;;;;;;13.13;9.07;;;21.00;99.90;;;;;;5021527;28;20177;-84
2023/06/22 05:05:26;;;;;;;12.47;9.53;;;21.10;99.90;;;;;;5025267;28;20169;-81
2023/06/22 05:07:59;;;;;;;12.60;8.63;;;21.10;99.90;;;;;;5016457;28;20177;-80
2023/06/22 05:10:25;;;;;;;11.33;9.47;;;21.10;99.90;;;;;;5016190;28;20161;-81
2023/06/22 05:12:51;;;;;;;9.73;8.73;;;21.20;99.90;;;;;;5016535;28;20256;-81
2023/06/22 05:15:19;;;;;;;12.30;8.90;;;21.30;99.90;;;;;;5014781;28;20304;-85
2023/06/22 05:17:45;;;;;;;13.53;8.90;;;21.30;99.90;;;;;;5016748;28;20173;-83
2023/06/22 05:20:12;;;;;;;12.93;9.20;;;21.40;99.90;;;;;;5017809;28;20235;-80
2023/06/22 05:22:39;;;;;;;10.50;8.60;;;21.40;99.90;;;;;;5015497;28;20234;-78
2023/06/22 05:25:09;;;;;;;11.73;8.93;;;21.50;99.90;;;;;;5015556;28;20180;-77
2023/06/22 05:27:39;;;;;;;14.03;9.20;;;21.60;99.90;;;;;;5017403;28;20637;-78
2023/06/22 05:30:07;;;;;;;11.53;8.97;;;21.70;99.90;;;;;;5019816;28;20165;-80
2023/06/22 05:32:33;;;;;;;12.60;8.53;;;21.80;99.90;;;;;;5019515;28;20197;-80
2023/06/22 05:34:59;;;;;;;13.03;9.10;;;21.80;99.90;;;;;;5015792;28;20719;-80
2023/06/22 05:37:26;;;;;;;14.03;8.80;;;21.90;99.90;;;;;;5015969;28;20215;-79
2023/06/22 05:39:51;;;;;;;10.53;8.77;;;22.00;99.90;;;;;;5016234;28;20223;-77
2023/06/22 05:42:17;;;;;;;12.27;8.83;;;22.00;99.90;;;;;;5016355;28;20177;-78
2023/06/22 05:44:43;;;;;;;13.90;9.03;;;22.00;99.90;;;;;;5016626;28;20541;-79
2023/06/22 05:47:09;;;;;;;11.70;8.60;;;22.00;99.90;;;;;;5014997;28;20181;-79
2023/06/22 05:49:34;;;;;;;12.57;8.50;;;22.00;99.90;;;;;;5016878;28;20185;-77
2023/06/22 05:52:00;;;;;;;13.50;8.73;;;22.00;99.90;;;;;;5020467;28;20207;-79
2023/06/22 05:54:28;;;;;;;15.27;8.30;;;22.10;99.90;;;;;;5036418;28;20283;-78
2023/06/22 05:56:55;;;;;;;9.53;8.27;;;22.30;99.90;;;;;;5040450;28;20246;-79
2023/06/22 05:59:21;;;;;;;9.53;7.97;;;22.40;99.90;;;;;;5041383;28;20540;-79
2023/06/22 06:01:50;;;;;;;11.73;8.27;;;22.40;99.90;;;;;;5038470;28;20181;-78
2023/06/22 06:04:18;;;;;;;11.50;8.77;;;22.40;99.90;;;;;;5052873;28;20157;-77
2023/06/22 06:06:44;;;;;;;10.60;8.07;;;22.40;99.90;;;;;;5040253;28;20179;-78
2023/06/22 06:09:11;;;;;;;10.00;7.97;;;22.50;99.90;;;;;;5037216;28;20181;-78
2023/06/22 06:11:37;;;;;;;11.63;8.87;;;22.50;99.90;;;;;;5037087;28;20164;-80
2023/06/22 06:14:03;;;;;;;10.60;8.93;;;22.60;99.90;;;;;;5041193;28;20173;-83
2023/06/22 06:16:29;;;;;;;13.03;9.03;;;22.70;99.90;;;;;;5051763;28;20271;-78
2023/06/22 06:18:55;;;;;;;10.77;7.87;;;22.80;99.90;;;;;;5050230;28;20168;-77
2023/06/22 06:21:21;;;;;;;11.37;8.50;;;22.90;99.90;;;;;;5036808;28;20168;-79
2023/06/22 06:23:48;;;;;;;12.30;7.85;;;23.00;99.90;;;;;;5037435;28;20232;-78
2023/06/22 06:26:16;;;;;;;11.13;8.70;;;23.10;99.90;;;;;;5037097;28;20184;-79
2023/06/22 06:28:43;;;;;;;11.32;8.77;;;23.20;99.90;;;;;;5018064;28;20656;-81
2023/06/22 06:31:09;;;;;;;12.57;8.80;;;23.30;99.90;;;;;;5037038;28;20315;-79
2023/06/22 06:33:35;;;;;;;10.88;8.30;;;23.30;99.90;;;;;;5034876;28;20563;-77
2023/06/22 06:36:03;;;;;;;12.25;8.88;;;23.40;99.90;;;;;;5033978;28;20208;-78
2023/06/22 06:38:29;;;;;;;9.32;8.25;;;23.60;99.90;;;;;;5034313;28;20168;-79
2023/06/22 06:40:55;;;;;;;12.68;9.27;;;23.60;99.90;;;;;;5034744;28;20208;-79
2023/06/22 06:43:22;;;;;;;14.10;9.57;;;23.80;99.90;;;;;;5035928;28;20181;-80
2023/06/22 06:45:48;;;;;;;11.88;9.02;;;24.00;99.90;;;;;;5031424;28;20172;-79
2023/06/22 06:48:14;;;;;;;11.38;9.25;;;24.20;99.90;;;;;;5049535;28;20168;-79
2023/06/22 06:50:39;;;;;;;12.88;8.40;;;24.20;99.90;;;;;;5034545;28;20172;-80
2023/06/22 06:53:07;;;;;;;13.38;8.32;;;24.20;99.90;;;;;;5033535;28;20290;-79
2023/06/22 06:55:32;;;;;;;13.38;8.40;;;24.40;99.90;;;;;;5034144;28;20254;-79
2023/06/22 06:57:59;;;;;;;10.88;8.70;;;24.60;99.90;;;;;;5033924;28;20554;-79
2023/06/22 07:00:25;;;;;;;15.43;8.35;;;24.60;99.90;;;;;;5042557;28;20195;-81
2023/06/22 07:02:51;;;;;;;12.95;8.50;;;24.80;99.90;;;;;;5036225;28;20165;-80
2023/06/22 07:05:17;;;;;;;8.45;7.57;;;24.60;99.90;;;;;;5033814;28;20180;-79
2023/06/22 07:07:43;;;;;;;11.50;8.07;;;24.60;99.90;;;;;;5033775;28;20255;-80
2023/06/22 07:10:09;;;;;;;11.23;8.30;;;24.90;99.90;;;;;;5033747;28;20655;-79
2023/06/22 07:12:35;;;;;;;7.88;7.07;;;25.10;99.90;;;;;;5033400;28;20686;-81
2023/06/22 07:15:03;;;;;;;9.93;7.45;;;25.10;99.90;;;;;;5036471;28;20263;-80
2023/06/22 07:17:29;;;;;;;8.38;7.22;;;25.30;99.90;;;;;;5037611;28;20618;-76
2023/06/22 07:19:55;;;;;;;10.77;7.57;;;25.40;99.90;;;;;;5037490;28;20251;-76
2023/06/22 07:22:20;;;;;;;13.05;8.40;;;25.60;99.90;;;;;;5037634;28;20169;-78
2023/06/22 07:24:46;;;;;;;11.27;7.07;;;25.60;99.90;;;;;;5019960;28;20187;-78
2023/06/22 07:27:12;;;;;;;12.00;8.00;;;25.70;99.90;;;;;;5037487;28;20169;-78
2023/06/22 07:29:40;;;;;;;8.15;7.15;;;25.80;99.90;;;;;;5022528;28;20179;-79
2023/06/22 07:32:06;;;;;;;14.38;7.80;;;25.80;99.90;;;;;;5041080;28;20172;-79
2023/06/22 07:34:33;;;;;;;9.68;8.50;;;25.80;99.90;;;;;;5020918;28;20573;-80
2023/06/22 07:36:59;;;;;;;11.05;8.77;;;25.90;99.90;;;;;;5037334;28;20196;-81
2023/06/22 07:39:26;;;;;;;9.18;8.20;;;26.00;99.90;;;;;;5037444;28;20176;-80
2023/06/22 07:41:52;;;;;;;10.60;7.65;;;25.90;99.90;;;;;;5046685;28;20169;-79
2023/06/22 07:44:18;;;;;;;12.27;8.43;;;26.00;99.90;;;;;;5027118;28;20244;-81
2023/06/22 07:46:44;;;;;;;9.82;8.00;;;26.20;99.90;;;;;;5037478;28;20264;-80
2023/06/22 07:49:09;;;;;;;10.90;7.28;;;26.30;99.90;;;;;;5019385;28;20640;-83
2023/06/22 07:51:35;;;;;;;8.35;7.47;;;26.30;99.90;;;;;;5038193;28;20711;-81
2023/06/22 07:54:02;;;;;;;8.80;7.22;;;26.40;99.90;;;;;;5046783;28;20211;-80
2023/06/22 07:56:28;;;;;;;8.18;7.38;;;26.50;99.90;;;;;;5046912;28;20208;-83
2023/06/22 07:58:54;;;;;;;8.68;7.93;;;26.60;99.90;;;;;;5037860;28;20181;-78
2023/06/22 08:01:23;;;;;;;9.45;7.78;;;27.00;99.90;;;;;;5037113;28;20172;-79
2023/06/22 08:03:49;;;;;;;8.07;7.32;;;26.60;99.90;;;;;;5037102;28;20223;-81
2023/06/22 08:06:16;;;;;;;10.60;8.48;;;26.60;99.90;;;;;;5028926;28;20180;-80
2023/06/22 08:08:42;;;;;;;11.93;7.43;;;26.60;99.90;;;;;;5037961;28;20275;-82
2023/06/22 08:11:08;;;;;;;9.27;7.40;;;26.50;99.90;;;;;;5036614;28;20168;-82
2023/06/22 08:13:34;;;;;;;10.93;7.43;;;26.60;99.90;;;;;;5036543;28;20597;-82
2023/06/22 08:16:00;;;;;;;8.38;7.47;;;26.60;99.90;;;;;;5036854;28;20229;-81
2023/06/22 08:18:26;;;;;;;8.35;7.10;;;26.70;99.90;;;;;;5038052;28;20218;-80
2023/06/22 08:20:52;;;;;;;10.85;8.27;;;26.80;99.90;;;;;;5038407;28;20540;-82
2023/06/22 08:23:18;;;;;;;11.70;7.90;;;27.00;99.90;;;;;;5038230;28;20168;-82
2023/06/22 08:25:44;;;;;;;9.15;7.70;;;27.10;99.90;;;;;;5035430;28;20181;-81
2023/06/22 08:28:09;;;;;;;8.73;7.82;;;27.20;99.90;;;;;;5036310;28;20497;-81
2023/06/22 08:30:35;;;;;;;9.93;7.53;;;27.10;99.90;;;;;;5036042;28;20176;-79
2023/06/22 08:33:01;;;;;;;11.20;7.65;;;27.20;99.90;;;;;;5036186;28;20176;-81
2023/06/22 08:35:27;;;;;;;10.18;7.97;;;27.20;99.90;;;;;;5037454;28;20255;-82
2023/06/22 08:37:54;;;;;;;14.20;9.05;;;27.10;99.90;;;;;;5054143;28;20179;-80
2023/06/22 08:40:20;;;;;;;10.82;8.50;;;27.20;99.90;;;;;;5047669;28;20169;-83
2023/06/22 08:42:47;;;;;;;11.85;7.97;;;27.30;99.90;;;;;;5036406;28;20196;-80
2023/06/22 08:45:14;;;;;;;11.98;9.75;;;27.30;99.90;;;;;;5018323;28;20172;-81
2023/06/22 08:47:41;;;;;;;9.57;8.38;;;27.30;99.90;;;;;;5018447;28;20667;-82
2023/06/22 08:50:11;;;;;;;11.55;8.48;;;27.20;99.90;;;;;;5035531;28;20169;-81
2023/06/22 08:52:38;;;;;;;13.35;8.55;;;27.10;99.90;;;;;;5035552;28;20176;-82
2023/06/22 08:55:04;;;;;;;10.85;7.93;;;27.10;99.90;;;;;;5035672;28;20192;-78
2023/06/22 08:57:32;;;;;;;9.48;8.02;;;26.90;99.90;;;;;;5047458;28;20195;-80
2023/06/22 08:59:59;;;;;;;11.30;8.35;;;27.10;99.90;;;;;;5060014;28;20188;-80
2023/06/22 09:02:25;;;;;;;9.90;8.55;;;27.30;99.90;;;;;;5042779;28;20256;-83
2023/06/22 09:04:55;;;;;;;11.35;7.82;;;27.30;99.90;;;;;;5056198;28;20180;-83
2023/06/22 09:07:23;;;;;;;9.23;7.70;;;27.50;99.90;;;;;;5059727;28;20169;-81
2023/06/22 09:09:49;;;;;;;10.57;8.07;;;27.70;99.90;;;;;;5060055;28;20164;-82
2023/06/22 09:12:15;;;;;;;9.85;8.65;;;27.80;99.90;;;;;;5060204;28;20157;-81
2023/06/22 09:14:40;;;;;;;8.43;7.38;;;27.90;99.90;;;;;;5060203;28;20160;-82
2023/06/22 09:17:06;;;;;;;9.45;7.95;;;27.70;99.90;;;;;;5059833;28;20205;-80
2023/06/22 09:19:32;;;;;;;8.95;8.07;;;27.80;99.90;;;;;;5059121;28;20236;-80
2023/06/22 09:21:58;;;;;;;11.32;6.93;;;28.00;99.90;;;;;;5053766;28;20168;-79
2023/06/22 09:24:24;;;;;;;9.82;7.88;;;28.10;99.90;;;;;;5054416;28;20184;-80
2023/06/22 09:26:50;;;;;;;7.88;7.18;;;28.20;99.90;;;;;;5052379;28;20183;-80
2023/06/22 09:29:16;;;;;;;10.65;8.32;;;28.20;99.90;;;;;;5051401;28;20165;-80
2023/06/22 09:31:42;;;;;;;12.27;7.22;;;28.30;99.90;;;;;;5054134;28;20173;-81
2023/06/22 09:34:08;;;;;;;8.35;7.43;;;28.40;99.90;;;;;;5049146;28;20181;-80
2023/06/22 09:36:34;;;;;;;9.48;7.60;;;28.40;99.90;;;;;;5040675;28;20664;-81
2023/06/22 09:39:05;;;;;;;9.82;7.40;;;28.40;99.90;;;;;;5038899;28;20203;-78
2023/06/22 09:41:31;;;;;;;8.20;6.82;;;28.20;99.90;;;;;;5037060;28;20534;-80
2023/06/22 09:43:57;;;;;;;9.60;7.85;;;28.30;99.90;;;;;;5035890;28;20169;-80
2023/06/22 09:46:25;;;;;;;9.35;7.65;;;28.20;99.90;;;;;;5035379;28;20568;-81
2023/06/22 09:48:51;;;;;;;9.20;7.43;;;28.40;99.90;;;;;;5035193;28;20165;-80
2023/06/22 09:51:16;;;;;;;8.05;7.30;;;28.50;99.90;;;;;;5035805;28;20187;-81
2023/06/22 09:53:42;;;;;;;8.82;7.82;;;28.50;99.90;;;;;;5034795;28;20225;-81
2023/06/22 09:56:14;;;;;;;8.02;7.22;;;28.40;99.90;;;;;;5017137;28;20224;-80
2023/06/22 09:58:44;;;;;;;10.50;8.00;;;28.50;99.90;;;;;;5034927;28;20635;-79
2023/06/22 10:01:10;;;;;;;10.65;7.57;;;28.60;99.90;;;;;;5034557;28;20183;-81
2023/06/22 10:03:36;;;;;;;8.30;7.50;;;28.80;99.90;;;;;;5016770;28;20181;-80
2023/06/22 10:06:02;;;;;;;10.02;7.90;;;28.70;99.90;;;;;;5034305;28;20542;-81
2023/06/22 10:08:28;;;;;;;11.18;7.53;;;28.60;99.90;;;;;;5034420;28;20164;-83
2023/06/22 10:10:54;;;;;;;9.38;7.70;;;28.60;99.90;;;;;;5034830;28;20188;-81
2023/06/22 10:13:20;;;;;;;10.95;7.93;;;28.60;99.90;;;;;;5034253;28;20165;-82
2023/06/22 10:15:49;;;;;;;8.93;8.00;;;28.70;99.90;;;;;;5034054;28;20239;-82
2023/06/22 10:18:18;;;;;;;9.05;7.63;;;28.80;99.90;;;;;;5034567;28;20223;-80
2023/06/22 10:20:50;;;;;;;10.38;7.90;;;28.90;99.90;;;;;;5034172;28;20184;-81
2023/06/22 10:23:15;;;;;;;8.57;7.32;;;29.00;99.90;;;;;;5034379;28;20164;-80
2023/06/22 10:25:41;;;;;;;10.13;7.50;;;29.00;99.90;;;;;;5047064;28;20180;-83
2023/06/22 10:28:07;;;;;;;10.43;7.20;;;29.10;99.90;;;;;;5040748;28;20176;-81
2023/06/22 10:30:33;;;;;;;10.52;7.65;;;29.10;99.90;;;;;;5041826;28;20706;-81
2023/06/22 10:32:58;;;;;;;8.98;8.07;;;29.10;99.90;;;;;;5034524;28;20175;-82
2023/06/22 10:35:24;;;;;;;15.05;7.80;;;29.00;99.90;;;;;;5034028;28;20270;-81
2023/06/22 10:37:50;;;;;;;10.45;7.68;;;29.10;99.90;;;;;;5034001;28;20184;-80
2023/06/22 10:40:18;;;;;;;9.30;7.60;;;29.10;99.90;;;;;;5016488;28;20176;-76
2023/06/22 10:42:44;;;;;;;11.13;7.40;;;29.20;99.90;;;;;;5033598;28;20233;-79
2023/06/22 10:45:10;;;;;;;9.55;7.63;;;29.20;99.90;;;;;;5033795;28;20226;-80
2023/06/22 10:47:36;;;;;;;8.82;7.05;;;29.30;99.90;;;;;;5033704;28;20209;-81
2023/06/22 10:50:03;;;;;;;11.43;7.60;;;29.30;99.90;;;;;;5032962;28;20176;-80
2023/06/22 10:52:29;;;;;;;8.85;7.70;;;29.40;99.90;;;;;;5034269;28;20720;-78
2023/06/22 10:54:55;;;;;;;10.85;7.20;;;29.40;99.90;;;;;;5036146;28;20244;-80
2023/06/22 10:57:21;;;;;;;9.77;7.88;;;29.50;99.90;;;;;;5039819;28;20184;-79
2023/06/22 10:59:47;;;;;;;9.05;7.78;;;29.50;99.90;;;;;;5046386;28;20176;-79
2023/06/22 11:02:13;;;;;;;11.88;8.18;;;29.30;99.90;;;;;;5016438;28;20172;-80
2023/06/22 11:04:39;;;;;;;9.98;8.98;;;29.30;99.90;;;;;;5034132;28;20176;-82
2023/06/22 11:07:05;;;;;;;12.98;7.90;;;29.20;99.90;;;;;;5034480;28;20611;-80
2023/06/22 11:09:31;;;;;;;11.73;7.63;;;29.20;99.90;;;;;;5045838;28;20181;-78
2023/06/22 11:11:58;;;;;;;8.90;7.28;;;29.30;99.90;;;;;;5047102;28;20207;-78
2023/06/22 11:14:25;;;;;;;9.20;7.72;;;29.50;99.90;;;;;;5033957;28;20251;-81
2023/06/22 11:16:51;;;;;;;12.27;8.10;;;29.60;99.90;;;;;;5033716;28;20211;-78
2023/06/22 11:19:17;;;;;;;9.35;8.38;;;29.60;99.90;;;;;;5033398;28;20169;-79
2023/06/22 11:21:43;;;;;;;9.18;8.18;;;29.60;99.90;;;;;;5015846;28;20181;-80
2023/06/22 11:24:08;;;;;;;11.25;7.88;;;29.60;99.90;;;;;;5032991;28;20247;-80
2023/06/22 11:26:35;;;;;;;9.60;8.45;;;29.60;99.90;;;;;;5033126;28;20180;-79
2023/06/22 11:29:00;;;;;;;10.98;8.43;;;29.60;99.90;;;;;;5033047;28;20172;-77
2023/06/22 11:31:26;;;;;;;13.77;9.00;;;29.50;99.90;;;;;;5032962;28;20184;-79
2023/06/22 11:33:52;;;;;;;10.20;8.25;;;29.40;99.90;;;;;;5033507;28;20657;-76
2023/06/22 11:36:18;;;;;;;13.75;8.40;;;29.40;99.90;;;;;;5036425;28;20278;-76
2023/06/22 11:38:44;;;;;;;9.43;8.10;;;29.40;99.90;;;;;;5019418;28;20183;-78
2023/06/22 11:41:11;;;;;;;10.07;8.13;;;29.60;99.90;;;;;;5036329;28;20176;-77
2023/06/22 11:43:37;;;;;;;12.35;8.05;;;29.70;99.90;;;;;;5015584;28;20183;-78
2023/06/22 11:46:03;;;;;;;9.20;8.40;;;29.90;99.90;;;;;;5032818;28;20180;-78
2023/06/22 11:48:30;;;;;;;9.02;7.97;;;30.00;99.90;;;;;;5033056;28;20251;-78
2023/06/22 11:50:55;;;;;;;10.52;8.45;;;30.10;99.90;;;;;;5032967;28;20173;-80
2023/06/22 11:53:24;;;;;;;11.93;8.02;;;30.20;99.90;;;;;;5032706;28;20224;-80
2023/06/22 11:55:49;;;;;;;10.90;7.55;;;30.00;99.90;;;;;;5032940;28;20232;-80
2023/06/22 11:58:15;;;;;;;11.65;8.57;;;30.00;99.90;;;;;;5033036;28;20219;-80
2023/06/22 12:00:41;;;;;;;9.55;8.23;;;30.10;99.90;;;;;;5033496;28;20184;-82
2023/06/22 12:03:07;;;;;;;12.23;7.97;;;30.10;99.90;;;;;;5036967;28;20527;-82
2023/06/22 12:05:33;;;;;;;8.98;8.07;;;30.00;99.90;;;;;;5036554;28;20629;-80
2023/06/22 12:07:59;;;;;;;13.40;8.55;;;30.00;99.90;;;;;;5036604;28;20183;-79
2023/06/22 12:10:30;;;;;;;9.23;8.25;;;30.00;99.90;;;;;;5036475;28;20255;-81
2023/06/22 12:13:00;;;;;;;12.20;7.55;;;30.20;99.90;;;;;;5036457;28;20313;-81
2023/06/22 12:15:26;;;;;;;10.93;8.18;;;30.30;99.90;;;;;;5041758;28;20219;-80
2023/06/22 12:17:52;;;;;;;10.57;8.60;;;30.40;99.90;;;;;;5051776;28;20152;-82
2023/06/22 12:20:18;;;;;;;9.15;8.15;;;30.50;99.90;;;;;;5037326;28;20171;-80
2023/06/22 12:22:44;;;;;;;15.35;10.05;;;30.50;99.90;;;;;;5036458;28;20188;-82
2023/06/22 12:25:10;;;;;;;11.00;8.93;;;30.50;99.90;;;;;;5036253;28;20512;-83
2023/06/22 12:27:37;;;;;;;11.48;8.82;;;30.50;99.90;;;;;;5036164;28;20641;-80
2023/06/22 12:30:03;;;;;;;12.77;8.73;;;30.50;99.90;;;;;;5038905;28;20194;-80
2023/06/22 12:32:30;;;;;;;14.80;9.85;;;30.50;99.90;;;;;;5042466;28;20176;-82
2023/06/22 12:34:56;;;;;;;10.23;8.57;;;30.50;99.90;;;;;;5038987;28;20255;-82
2023/06/22 12:37:22;;;;;;;11.85;7.88;;;30.60;99.90;;;;;;5053053;28;20239;-82
2023/06/22 12:39:48;;;;;;;11.43;7.82;;;31.50;99.90;;;;;;5037244;28;20643;-80